Time;durP1;ratioP1;P1;durP2;ratioP2;P2;SDS_P1;SDS_P2;PMS_P1;PMS_P2;Temp;Humidity;BMP_temperature;BMP_pressure;BME280_temperature;BME280_humidity;BME280_pressure;Samples;Min_cycle;Max_cycle;Signal;HPM_P1;HPM_P2
2023/10/31 00:00:28;;;;;;;10.00;3.20;;;11.40;99.90;;;;;;5035477;28;20191;-61
2023/10/31 00:02:54;;;;;;;12.70;3.13;;;11.30;99.90;;;;;;5035480;28;20203;-63
2023/10/31 00:05:20;;;;;;;13.93;3.30;;;11.30;99.90;;;;;;5034235;28;20223;-61
2023/10/31 00:07:46;;;;;;;14.23;3.47;;;11.30;99.90;;;;;;5035645;28;20218;-62
2023/10/31 00:10:12;;;;;;;13.98;3.33;;;11.30;99.90;;;;;;5035239;28;20741;-60
2023/10/31 00:12:38;;;;;;;15.82;3.00;;;11.20;99.90;;;;;;5035451;28;20191;-63
2023/10/31 00:15:05;;;;;;;11.40;3.58;;;11.20;99.90;;;;;;5035672;28;20230;-62
2023/10/31 00:17:30;;;;;;;13.13;3.42;;;11.20;99.90;;;;;;5017838;28;20212;-60
2023/10/31 00:19:56;;;;;;;9.20;3.50;;;11.20;99.90;;;;;;5036089;28;20184;-60
2023/10/31 00:22:23;;;;;;;8.70;3.45;;;11.20;99.90;;;;;;5035398;28;20180;-61
2023/10/31 00:24:49;;;;;;;10.55;3.38;;;11.10;99.90;;;;;;5035507;28;20172;-60
2023/10/31 00:27:15;;;;;;;12.65;3.33;;;11.10;99.90;;;;;;5035434;28;20191;-60
2023/10/31 00:29:41;;;;;;;11.50;2.90;;;11.10;99.90;;;;;;5017532;28;20190;-61
2023/10/31 00:32:07;;;;;;;4.85;3.03;;;11.00;99.90;;;;;;5034242;28;20184;-60
2023/10/31 00:34:33;;;;;;;9.30;3.10;;;11.00;99.90;;;;;;5035060;28;20180;-64
2023/10/31 00:36:59;;;;;;;11.60;3.08;;;11.00;99.90;;;;;;5018031;28;20208;-62
2023/10/31 00:39:25;;;;;;;7.32;2.80;;;11.00;99.90;;;;;;5035427;28;20187;-61
2023/10/31 00:41:51;;;;;;;11.80;3.45;;;11.00;99.90;;;;;;5017736;28;20644;-62
2023/10/31 00:44:17;;;;;;;12.30;3.40;;;11.00;99.90;;;;;;5034927;28;20204;-60
2023/10/31 00:46:43;;;;;;;9.45;3.00;;;11.00;99.90;;;;;;5001338;28;20250;-65
2023/10/31 00:49:09;;;;;;;10.05;3.03;;;11.00;99.90;;;;;;5034551;28;20188;-61
2023/10/31 00:51:35;;;;;;;8.43;2.70;;;11.00;99.90;;;;;;5035124;28;20510;-62
2023/10/31 00:54:01;;;;;;;11.07;2.88;;;11.00;99.90;;;;;;5035037;28;20255;-61
2023/10/31 00:56:27;;;;;;;8.43;2.90;;;11.00;99.90;;;;;;5034680;28;20613;-61
2023/10/31 00:58:53;;;;;;;14.25;2.67;;;10.90;99.90;;;;;;5017015;28;20279;-60
2023/10/31 01:01:19;;;;;;;8.75;2.45;;;10.90;99.90;;;;;;5034572;28;20183;-64
2023/10/31 01:03:45;;;;;;;5.72;2.40;;;10.90;99.90;;;;;;5034233;28;20176;-65
2023/10/31 01:06:11;;;;;;;8.00;2.40;;;10.90;99.90;;;;;;5017258;28;20195;-61
2023/10/31 01:08:37;;;;;;;9.80;2.80;;;10.90;99.90;;;;;;5034917;28;20561;-64
2023/10/31 01:11:03;;;;;;;13.65;2.60;;;10.90;99.90;;;;;;5033147;28;20241;-62
2023/10/31 01:13:30;;;;;;;7.90;2.40;;;10.80;99.90;;;;;;5034768;28;20338;-61
2023/10/31 01:15:56;;;;;;;11.45;2.60;;;10.80;99.90;;;;;;5000482;28;20256;-64
2023/10/31 01:18:22;;;;;;;9.65;2.20;;;10.80;99.90;;;;;;5034987;28;20310;-60
2023/10/31 01:20:48;;;;;;;7.93;2.20;;;10.80;99.90;;;;;;5034388;28;20539;-60
2023/10/31 01:23:13;;;;;;;7.50;1.95;;;10.80;99.90;;;;;;5034237;28;20180;-61
2023/10/31 01:25:39;;;;;;;6.70;1.77;;;10.70;99.90;;;;;;5035077;28;20601;-64
2023/10/31 01:28:05;;;;;;;8.15;2.17;;;10.70;99.90;;;;;;5016495;28;20288;-63
2023/10/31 01:30:32;;;;;;;10.95;2.42;;;10.60;99.90;;;;;;5034909;28;20187;-62
2023/10/31 01:32:58;;;;;;;8.02;2.40;;;10.60;99.90;;;;;;5034142;28;20180;-60
2023/10/31 01:35:24;;;;;;;10.77;2.22;;;10.60;99.90;;;;;;5034503;28;20516;-59
2023/10/31 01:37:50;;;;;;;11.25;2.40;;;10.60;99.90;;;;;;5032677;28;20716;-62
2023/10/31 01:40:16;;;;;;;7.28;2.45;;;10.60;99.90;;;;;;5033866;28;20227;-63
2023/10/31 01:42:42;;;;;;;11.43;2.80;;;10.60;99.90;;;;;;5016203;28;20632;-60
2023/10/31 01:45:09;;;;;;;5.05;2.45;;;10.50;99.90;;;;;;5016671;28;20659;-60
2023/10/31 01:47:35;;;;;;;9.45;2.70;;;10.60;99.90;;;;;;5016146;28;20195;-60
2023/10/31 01:50:01;;;;;;;12.10;2.70;;;10.50;99.90;;;;;;5034360;28;20525;-58
2023/10/31 01:52:27;;;;;;;5.78;2.60;;;10.50;99.90;;;;;;5034169;28;20184;-63
2023/10/31 01:54:54;;;;;;;8.18;2.50;;;10.50;99.90;;;;;;5016290;28;20309;-60
2023/10/31 01:57:22;;;;;;;10.25;2.38;;;10.50;99.90;;;;;;5016034;28;20224;-58
2023/10/31 01:59:48;;;;;;;11.65;2.40;;;10.50;99.90;;;;;;5033779;28;20315;-59
2023/10/31 02:02:15;;;;;;;7.63;2.15;;;10.40;99.90;;;;;;4983941;28;20191;-64
2023/10/31 02:04:41;;;;;;;8.18;1.83;;;10.40;99.90;;;;;;5033764;28;20178;-63
2023/10/31 02:07:07;;;;;;;10.07;2.10;;;10.40;99.90;;;;;;5032801;28;20242;-60
2023/10/31 02:09:33;;;;;;;15.00;2.10;;;10.40;99.90;;;;;;5032902;28;20227;-58
2023/10/31 02:11:59;;;;;;;10.32;2.00;;;10.40;99.90;;;;;;5015808;28;20176;-61
2023/10/31 02:14:25;;;;;;;8.23;1.95;;;10.30;99.90;;;;;;5032013;28;20259;-61
2023/10/31 02:16:51;;;;;;;10.18;1.83;;;10.30;99.90;;;;;;5015373;28;20585;-60
2023/10/31 02:19:20;;;;;;;11.93;2.35;;;10.30;99.90;;;;;;5033236;28;20287;-58
2023/10/31 02:21:46;;;;;;;10.82;2.20;;;10.30;99.90;;;;;;5033794;28;20212;-59
2023/10/31 02:24:12;;;;;;;10.10;2.33;;;10.30;99.90;;;;;;5015910;28;20549;-59
2023/10/31 02:26:38;;;;;;;8.77;2.05;;;10.30;99.90;;;;;;5033429;28;20184;-56
2023/10/31 02:29:05;;;;;;;13.13;2.40;;;10.30;99.90;;;;;;5033196;28;20176;-59
2023/10/31 02:31:31;;;;;;;11.20;2.20;;;10.30;99.90;;;;;;5033249;28;20191;-65
2023/10/31 02:33:57;;;;;;;9.15;2.05;;;10.30;99.90;;;;;;5033777;28;20274;-58
2023/10/31 02:36:23;;;;;;;13.32;2.33;;;10.30;99.90;;;;;;5033186;28;20267;-61
2023/10/31 02:38:49;;;;;;;10.90;2.65;;;10.30;99.90;;;;;;5031667;28;20212;-58
2023/10/31 02:41:15;;;;;;;13.38;2.90;;;10.30;99.90;;;;;;5015647;28;20182;-60
2023/10/31 02:43:41;;;;;;;11.88;3.20;;;10.30;99.90;;;;;;5015700;28;20180;-59
2023/10/31 02:46:07;;;;;;;14.70;3.33;;;10.30;99.90;;;;;;5015474;28;20188;-58
2023/10/31 02:48:39;;;;;;;12.40;3.60;;;10.30;99.90;;;;;;5015356;28;20184;-65
2023/10/31 02:51:05;;;;;;;16.85;3.40;;;10.30;99.90;;;;;;5015449;28;20160;-55
2023/10/31 02:53:31;;;;;;;6.78;3.20;;;10.30;99.90;;;;;;5015614;28;20210;-60
2023/10/31 02:55:57;;;;;;;14.30;3.78;;;10.30;99.90;;;;;;5015386;28;20191;-58
2023/10/31 02:58:23;;;;;;;10.00;3.40;;;10.20;99.90;;;;;;5014784;28;20208;-56
2023/10/31 03:00:49;;;;;;;21.90;4.22;;;10.30;99.90;;;;;;5032461;28;20184;-60
2023/10/31 03:03:15;;;;;;;15.65;4.60;;;10.30;99.90;;;;;;5032533;28;20180;-54
2023/10/31 03:05:41;;;;;;;15.10;4.43;;;10.30;99.90;;;;;;5032663;28;20188;-55
2023/10/31 03:08:10;;;;;;;16.17;3.92;;;10.30;99.90;;;;;;5014957;28;20624;-59
2023/10/31 03:10:37;;;;;;;15.48;4.53;;;10.30;99.90;;;;;;5032502;28;20223;-58
2023/10/31 03:13:03;;;;;;;17.40;4.88;;;10.30;99.90;;;;;;5014633;28;20184;-60
2023/10/31 03:15:30;;;;;;;16.08;4.95;;;10.40;99.90;;;;;;5032270;28;20582;-57
2023/10/31 03:17:57;;;;;;;17.58;4.90;;;10.40;99.90;;;;;;5032115;28;20262;-54
2023/10/31 03:20:23;;;;;;;15.20;5.00;;;10.40;99.90;;;;;;5014615;28;20180;-56
2023/10/31 03:22:49;;;;;;;13.80;4.80;;;10.30;99.90;;;;;;5032187;28;20192;-58
2023/10/31 03:25:15;;;;;;;13.15;5.10;;;10.40;99.90;;;;;;5032528;28;20180;-59
2023/10/31 03:27:41;;;;;;;16.48;5.70;;;10.30;99.90;;;;;;5030479;28;20184;-57
2023/10/31 03:30:07;;;;;;;17.23;5.90;;;10.40;99.90;;;;;;5032201;28;20623;-58
2023/10/31 03:32:33;;;;;;;20.33;6.70;;;10.40;99.90;;;;;;5032042;28;20179;-59
2023/10/31 03:34:59;;;;;;;15.65;6.70;;;10.40;99.90;;;;;;5032017;28;20559;-60
2023/10/31 03:37:25;;;;;;;21.58;7.22;;;10.40;99.90;;;;;;5014225;28;20215;-60
2023/10/31 03:39:51;;;;;;;16.77;7.35;;;10.40;99.90;;;;;;5032050;28;20176;-56
2023/10/31 03:42:17;;;;;;;23.40;7.80;;;10.40;99.90;;;;;;5013860;28;20222;-59
2023/10/31 03:44:42;;;;;;;18.65;8.55;;;10.40;99.90;;;;;;5031785;28;20188;-60
2023/10/31 03:47:08;;;;;;;20.05;8.70;;;10.40;99.90;;;;;;5031596;28;20180;-57
2023/10/31 03:49:39;;;;;;;20.02;8.77;;;10.40;99.90;;;;;;5030417;28;20190;-62
2023/10/31 03:52:05;;;;;;;19.27;9.32;;;10.40;99.90;;;;;;5031538;28;20187;-57
2023/10/31 03:54:31;;;;;;;21.08;9.45;;;10.40;99.90;;;;;;5031557;28;20574;-61
2023/10/31 03:56:57;;;;;;;18.92;9.25;;;10.40;99.90;;;;;;5031956;28;20215;-58
2023/10/31 03:59:23;;;;;;;19.63;9.63;;;10.40;99.90;;;;;;5013942;28;20184;-59
2023/10/31 04:01:48;;;;;;;18.20;8.70;;;10.50;99.90;;;;;;5031716;28;20188;-62
2023/10/31 04:04:14;;;;;;;19.50;8.32;;;10.50;99.90;;;;;;5013985;28;20202;-59
2023/10/31 04:06:41;;;;;;;15.00;8.15;;;10.50;99.90;;;;;;5013925;28;20246;-58
2023/10/31 04:09:07;;;;;;;19.33;8.45;;;10.50;99.90;;;;;;5013738;28;20267;-60
2023/10/31 04:11:33;;;;;;;18.10;7.80;;;10.50;99.90;;;;;;5014166;28;20240;-59
2023/10/31 04:13:59;;;;;;;17.98;6.85;;;10.60;99.90;;;;;;5030311;28;20659;-55
2023/10/31 04:16:25;;;;;;;16.67;7.25;;;10.60;99.90;;;;;;5032027;28;20561;-60
2023/10/31 04:18:51;;;;;;;17.80;7.60;;;10.50;99.90;;;;;;5031322;28;20630;-59
2023/10/31 04:21:17;;;;;;;17.42;6.85;;;10.60;99.90;;;;;;5031333;28;20180;-60
2023/10/31 04:23:43;;;;;;;22.73;7.80;;;10.60;99.90;;;;;;5031423;28;20640;-56
2023/10/31 04:26:09;;;;;;;14.73;6.50;;;10.60;99.90;;;;;;5031361;28;20180;-60
2023/10/31 04:28:35;;;;;;;17.58;7.38;;;10.60;99.90;;;;;;5014509;28;20590;-60
2023/10/31 04:31:01;;;;;;;15.43;6.88;;;10.60;99.90;;;;;;5031600;28;20172;-58
2023/10/31 04:33:27;;;;;;;19.77;6.85;;;10.60;99.90;;;;;;5031437;28;20188;-59
2023/10/31 04:35:52;;;;;;;23.55;7.00;;;10.60;99.90;;;;;;5014174;28;20274;-62
2023/10/31 04:38:18;;;;;;;15.68;7.00;;;10.60;99.90;;;;;;5031506;28;20584;-58
2023/10/31 04:40:45;;;;;;;15.18;6.60;;;10.60;99.90;;;;;;5017240;28;20220;-57
2023/10/31 04:43:11;;;;;;;17.92;6.47;;;10.60;99.90;;;;;;5017320;28;20276;-59
2023/10/31 04:45:36;;;;;;;14.55;5.97;;;10.60;99.90;;;;;;5033596;28;20204;-59
2023/10/31 04:48:03;;;;;;;14.48;6.00;;;10.60;99.90;;;;;;5034758;28;20176;-61
2023/10/31 04:50:29;;;;;;;14.20;5.25;;;10.60;99.90;;;;;;5035137;28;20187;-58
2023/10/31 04:52:54;;;;;;;17.23;5.30;;;10.60;99.90;;;;;;5033816;28;20184;-58
2023/10/31 04:55:20;;;;;;;17.77;6.78;;;10.60;99.90;;;;;;5034761;28;20270;-56
2023/10/31 04:57:46;;;;;;;12.68;6.53;;;10.60;99.90;;;;;;5034699;28;20269;-60
2023/10/31 05:00:13;;;;;;;18.83;7.38;;;10.60;99.90;;;;;;5034589;28;20229;-58
2023/10/31 05:02:38;;;;;;;21.65;9.20;;;10.60;99.90;;;;;;5035060;28;20183;-62
2023/10/31 05:05:04;;;;;;;18.02;9.20;;;10.60;99.90;;;;;;5035273;28;20266;-60
2023/10/31 05:07:32;;;;;;;17.98;8.27;;;10.60;99.90;;;;;;5035215;28;20271;-59
2023/10/31 05:09:59;;;;;;;14.95;7.00;;;10.60;99.90;;;;;;5034834;28;20232;-58
2023/10/31 05:12:25;;;;;;;17.25;5.93;;;10.60;99.90;;;;;;5033445;28;20271;-60
2023/10/31 05:14:51;;;;;;;10.68;5.03;;;10.60;99.90;;;;;;5034629;28;20261;-57
2023/10/31 05:17:17;;;;;;;11.10;5.00;;;10.60;99.90;;;;;;5033363;28;20238;-55
2023/10/31 05:19:43;;;;;;;8.40;4.15;;;10.60;99.90;;;;;;5017278;28;20196;-62
2023/10/31 05:22:09;;;;;;;15.13;4.35;;;10.60;99.90;;;;;;5034421;28;20180;-58
2023/10/31 05:24:36;;;;;;;6.95;4.05;;;10.70;99.90;;;;;;5016738;28;20238;-57
2023/10/31 05:27:03;;;;;;;7.53;3.58;;;10.70;99.90;;;;;;5034276;28;20627;-55
2023/10/31 05:29:30;;;;;;;8.93;3.75;;;10.70;99.90;;;;;;5034225;28;20714;-58
2023/10/31 05:31:56;;;;;;;10.75;3.70;;;10.70;99.90;;;;;;5034305;28;20180;-54
2023/10/31 05:34:21;;;;;;;6.85;3.40;;;10.70;99.90;;;;;;5034447;28;20234;-59
2023/10/31 05:36:48;;;;;;;12.25;2.90;;;10.70;99.90;;;;;;5016703;28;20217;-59
2023/10/31 05:39:15;;;;;;;5.82;2.50;;;10.70;99.90;;;;;;5016249;28;20183;-64
2023/10/31 05:41:41;;;;;;;4.82;2.17;;;10.70;99.90;;;;;;5032621;28;20180;-59
2023/10/31 05:44:07;;;;;;;5.32;2.35;;;10.60;99.90;;;;;;5034394;28;20190;-55
2023/10/31 05:46:39;;;;;;;4.47;2.63;;;10.60;99.90;;;;;;5016457;28;20176;-56
2023/10/31 05:49:07;;;;;;;6.03;3.00;;;10.60;99.90;;;;;;5033544;28;20175;-61
2023/10/31 05:51:33;;;;;;;8.65;3.25;;;10.60;99.90;;;;;;5016680;28;20230;-60
2023/10/31 05:54:00;;;;;;;8.07;2.72;;;10.60;99.90;;;;;;5016743;28;20180;-58
2023/10/31 05:56:26;;;;;;;5.05;2.70;;;10.60;99.90;;;;;;5016492;28;20242;-57
2023/10/31 05:58:52;;;;;;;8.75;3.00;;;10.60;99.90;;;;;;5032670;28;20212;-59
2023/10/31 06:01:17;;;;;;;7.60;2.72;;;10.60;99.90;;;;;;5015564;28;20172;-61
2023/10/31 06:03:44;;;;;;;3.90;2.50;;;10.60;99.90;;;;;;5033471;28;20184;-59
2023/10/31 06:06:11;;;;;;;7.13;2.72;;;10.60;99.90;;;;;;5033387;28;20234;-61
2023/10/31 06:08:38;;;;;;;6.00;2.60;;;10.60;99.90;;;;;;5033848;28;20192;-59
2023/10/31 06:11:04;;;;;;;7.30;2.28;;;10.60;99.90;;;;;;5015621;28;20227;-60
2023/10/31 06:13:31;;;;;;;8.65;2.35;;;10.60;99.90;;;;;;5015417;28;20187;-56
2023/10/31 06:15:57;;;;;;;4.82;2.50;;;10.60;99.90;;;;;;5032823;28;20225;-59
2023/10/31 06:18:24;;;;;;;5.53;2.58;;;10.60;99.90;;;;;;5033334;28;20212;-61
2023/10/31 06:20:50;;;;;;;7.38;2.83;;;10.60;99.90;;;;;;5033327;28;20188;-60
2023/10/31 06:23:15;;;;;;;6.35;3.33;;;10.60;99.90;;;;;;5016267;28;20222;-59
2023/10/31 06:25:42;;;;;;;7.10;2.97;;;10.60;99.90;;;;;;5033303;28;20271;-61
2023/10/31 06:28:07;;;;;;;6.57;3.13;;;10.60;99.90;;;;;;5033324;28;20185;-59
2023/10/31 06:30:33;;;;;;;8.77;3.50;;;10.70;99.90;;;;;;5033051;28;20236;-59
2023/10/31 06:33:02;;;;;;;8.82;3.83;;;10.70;99.90;;;;;;5033063;28;20176;-58
2023/10/31 06:35:29;;;;;;;9.80;3.95;;;10.70;99.90;;;;;;5015066;28;20180;-61
2023/10/31 06:37:59;;;;;;;9.07;3.90;;;10.70;99.90;;;;;;5015406;28;20334;-57
2023/10/31 06:40:26;;;;;;;8.38;4.68;;;10.70;99.90;;;;;;5032984;28;20571;-58
2023/10/31 06:42:52;;;;;;;6.53;4.20;;;10.70;99.90;;;;;;5032959;28;20200;-59
2023/10/31 06:45:18;;;;;;;7.10;4.40;;;10.70;99.90;;;;;;5033169;28;20270;-62
2023/10/31 06:47:44;;;;;;;11.23;4.30;;;10.70;99.90;;;;;;5033069;28;20532;-55
2023/10/31 06:50:10;;;;;;;9.40;4.75;;;10.70;99.90;;;;;;5032765;28;20172;-63
2023/10/31 06:52:36;;;;;;;8.70;5.07;;;10.70;99.90;;;;;;5032916;28;20187;-62
2023/10/31 06:55:02;;;;;;;10.45;5.43;;;10.80;99.90;;;;;;5032551;28;20223;-60
2023/10/31 06:57:29;;;;;;;10.60;5.13;;;10.80;99.90;;;;;;5032562;28;20679;-58
2023/10/31 06:59:55;;;;;;;9.85;5.20;;;10.80;99.90;;;;;;5032532;28;20188;-58
2023/10/31 07:02:21;;;;;;;10.18;4.95;;;10.80;99.90;;;;;;4997828;28;20191;-64
2023/10/31 07:04:47;;;;;;;10.02;5.68;;;10.80;99.90;;;;;;5014704;28;20636;-60
2023/10/31 07:07:13;;;;;;;11.23;5.55;;;10.90;99.90;;;;;;5015056;28;20187;-59
2023/10/31 07:09:39;;;;;;;10.20;5.43;;;10.90;99.90;;;;;;5014682;28;20243;-60
2023/10/31 07:12:06;;;;;;;10.02;5.38;;;10.90;99.90;;;;;;4998315;28;20188;-61
2023/10/31 07:14:32;;;;;;;15.98;5.50;;;10.90;99.90;;;;;;5031805;28;20651;-62
2023/10/31 07:16:58;;;;;;;9.90;5.65;;;10.90;99.90;;;;;;5014647;28;20195;-59
2023/10/31 07:19:24;;;;;;;13.68;6.18;;;10.90;99.90;;;;;;5032388;28;20629;-60
2023/10/31 07:21:50;;;;;;;11.40;5.30;;;10.90;99.90;;;;;;5031952;28;20207;-62
2023/10/31 07:24:16;;;;;;;11.27;5.82;;;10.90;99.90;;;;;;5032328;28;20183;-62
2023/10/31 07:26:42;;;;;;;15.23;5.90;;;10.90;99.90;;;;;;5031872;28;20527;-60
2023/10/31 07:29:08;;;;;;;14.10;5.88;;;10.90;99.90;;;;;;5031744;28;20270;-61
2023/10/31 07:31:38;;;;;;;11.60;5.80;;;10.90;99.90;;;;;;5031757;28;20266;-63
2023/10/31 07:34:05;;;;;;;9.65;5.60;;;10.90;99.90;;;;;;5032191;28;20184;-58
2023/10/31 07:36:41;;;;;;;12.50;5.78;;;11.00;99.90;;;;;;5031974;28;20670;-60
2023/10/31 07:39:07;;;;;;;11.38;5.75;;;11.00;99.90;;;;;;5014177;28;20168;-62
2023/10/31 07:41:33;;;;;;;9.10;4.97;;;11.00;99.90;;;;;;5031673;28;20183;-64
2023/10/31 07:43:59;;;;;;;10.70;4.45;;;11.00;99.90;;;;;;5031525;28;20259;-59
2023/10/31 07:46:25;;;;;;;10.60;4.20;;;11.10;99.90;;;;;;5031583;28;20576;-58
2023/10/31 07:48:51;;;;;;;11.95;4.20;;;11.10;99.90;;;;;;5031492;28;20623;-60
2023/10/31 07:51:17;;;;;;;12.95;4.63;;;11.10;99.90;;;;;;5014552;28;20279;-61
2023/10/31 07:53:43;;;;;;;13.60;5.82;;;11.10;99.90;;;;;;5030390;28;20820;-60
2023/10/31 07:56:23;;;;;;;13.95;4.15;;;11.20;99.90;;;;;;5031385;28;20339;-62
2023/10/31 07:58:50;;;;;;;7.70;3.88;;;11.20;99.90;;;;;;5013907;28;20214;-53
2023/10/31 08:01:21;;;;;;;8.18;3.80;;;11.20;99.90;;;;;;5031254;28;20208;-59
2023/10/31 08:03:47;;;;;;;12.88;3.92;;;11.20;99.90;;;;;;5014473;28;20214;-63
2023/10/31 08:06:14;;;;;;;9.35;3.60;;;11.20;99.90;;;;;;5032142;28;20271;-62
2023/10/31 08:08:40;;;;;;;9.30;3.35;;;11.20;99.90;;;;;;5031786;28;20203;-57
2023/10/31 08:11:10;;;;;;;11.13;3.10;;;11.30;99.90;;;;;;5030948;28;20682;-59
2023/10/31 08:13:39;;;;;;;7.03;2.92;;;11.30;99.90;;;;;;5033963;28;20660;-62
2023/10/31 08:16:07;;;;;;;10.38;3.30;;;11.30;99.90;;;;;;5035378;28;20192;-62
2023/10/31 08:18:33;;;;;;;11.30;3.75;;;11.40;99.90;;;;;;5035002;28;20647;-57
2023/10/31 08:20:59;;;;;;;14.63;4.38;;;11.50;99.90;;;;;;5035200;28;20187;-61
2023/10/31 08:23:25;;;;;;;11.63;4.90;;;11.50;99.90;;;;;;5034851;28;20267;-59
2023/10/31 08:25:51;;;;;;;9.43;5.10;;;11.50;99.90;;;;;;5035082;28;20628;-61
2023/10/31 08:28:17;;;;;;;11.77;5.60;;;11.60;99.90;;;;;;5034651;28;20194;-63
2023/10/31 08:30:44;;;;;;;12.82;5.65;;;11.70;99.90;;;;;;5001157;28;20267;-63
2023/10/31 08:33:10;;;;;;;16.52;5.80;;;11.70;99.90;;;;;;5034795;28;20256;-63
2023/10/31 08:35:36;;;;;;;9.82;5.32;;;11.80;99.90;;;;;;5017425;28;20226;-61
2023/10/31 08:38:02;;;;;;;11.55;5.55;;;11.80;99.90;;;;;;5034834;28;20680;-59
2023/10/31 08:40:27;;;;;;;10.23;4.40;;;11.80;99.90;;;;;;5035210;28;20199;-60
2023/10/31 08:42:54;;;;;;;12.48;3.40;;;11.80;99.90;;;;;;5017302;28;20184;-60
2023/10/31 08:45:21;;;;;;;7.85;2.63;;;11.80;99.90;;;;;;5034707;28;20200;-58
2023/10/31 08:47:47;;;;;;;12.88;2.08;;;11.80;99.90;;;;;;5017065;28;20210;-61
2023/10/31 08:50:13;;;;;;;16.02;2.05;;;11.90;99.90;;;;;;5016750;28;20211;-60
2023/10/31 08:52:39;;;;;;;15.38;2.15;;;11.90;99.90;;;;;;5016937;28;20186;-63
2023/10/31 08:55:06;;;;;;;13.80;2.00;;;11.90;99.90;;;;;;5034570;28;20211;-61
2023/10/31 08:57:33;;;;;;;16.30;1.80;;;11.90;99.90;;;;;;5034371;28;20203;-60
2023/10/31 09:00:00;;;;;;;9.68;1.63;;;11.90;99.90;;;;;;5017239;28;20263;-62
2023/10/31 09:02:26;;;;;;;10.77;1.42;;;11.90;99.90;;;;;;5033593;28;20191;-58
2023/10/31 09:04:53;;;;;;;10.57;1.50;;;11.90;99.90;;;;;;5016630;28;20490;-60
2023/10/31 09:07:19;;;;;;;7.70;1.00;;;11.90;99.90;;;;;;5034833;28;20180;-62
2023/10/31 09:09:44;;;;;;;7.18;1.30;;;11.90;99.90;;;;;;5034380;28;20660;-61
2023/10/31 09:12:10;;;;;;;9.13;1.65;;;11.80;99.90;;;;;;5034363;28;20274;-62
2023/10/31 09:14:36;;;;;;;6.35;1.20;;;11.80;99.90;;;;;;5034214;28;20249;-62
2023/10/31 09:17:02;;;;;;;6.55;1.10;;;11.70;99.90;;;;;;5034377;28;20616;-62
2023/10/31 09:19:28;;;;;;;15.95;1.90;;;11.60;99.90;;;;;;5033040;28;20184;-59
2023/10/31 09:21:55;;;;;;;9.70;1.50;;;11.60;99.90;;;;;;5034070;28;20542;-61
2023/10/31 09:24:21;;;;;;;8.93;1.23;;;11.60;99.90;;;;;;5033188;28;20183;-61
2023/10/31 09:26:47;;;;;;;6.03;1.20;;;11.60;99.90;;;;;;5016091;28;20184;-61
2023/10/31 09:29:13;;;;;;;5.63;1.27;;;11.50;99.90;;;;;;5034542;28;20176;-62
2023/10/31 09:31:39;;;;;;;8.82;1.63;;;11.50;99.90;;;;;;5000054;28;20184;-57
2023/10/31 09:34:07;;;;;;;7.38;1.20;;;11.50;99.90;;;;;;5016329;28;20202;-62
2023/10/31 09:36:36;;;;;;;7.13;1.15;;;11.50;99.90;;;;;;5033894;28;20210;-60
2023/10/31 09:39:03;;;;;;;12.07;1.77;;;11.50;99.90;;;;;;5033703;28;20316;-65
2023/10/31 09:41:32;;;;;;;6.60;1.10;;;11.50;99.90;;;;;;5033641;28;20337;-60
2023/10/31 09:43:58;;;;;;;6.65;0.90;;;11.40;99.90;;;;;;5033853;28;20176;-63
2023/10/31 09:46:24;;;;;;;4.30;1.10;;;11.40;99.90;;;;;;5033379;28;20187;-62
2023/10/31 09:48:51;;;;;;;4.13;1.10;;;11.40;99.90;;;;;;5015828;28;20302;-60
2023/10/31 09:51:17;;;;;;;7.03;1.23;;;11.40;99.90;;;;;;5033597;28;20176;-63
2023/10/31 09:53:45;;;;;;;3.90;0.90;;;11.30;99.90;;;;;;5033169;28;20180;-64
2023/10/31 09:56:11;;;;;;;3.97;1.23;;;11.30;99.90;;;;;;5016310;28;20188;-62
2023/10/31 09:58:39;;;;;;;5.80;0.98;;;11.30;99.90;;;;;;5033220;28;20246;-62
2023/10/31 10:01:05;;;;;;;4.03;1.00;;;11.30;99.90;;;;;;5033662;28;20533;-60
2023/10/31 10:03:31;;;;;;;3.20;1.02;;;11.30;99.90;;;;;;5032893;28;20180;-60
2023/10/31 10:05:58;;;;;;;6.47;1.10;;;11.30;99.90;;;;;;4999630;28;20176;-63
2023/10/31 10:08:24;;;;;;;5.95;1.00;;;11.40;99.90;;;;;;5033063;28;20187;-59
2023/10/31 10:10:51;;;;;;;3.85;1.02;;;11.40;99.90;;;;;;5033141;28;20667;-64
2023/10/31 10:13:18;;;;;;;8.05;1.55;;;11.40;99.90;;;;;;5032856;28;20184;-62
2023/10/31 10:15:45;;;;;;;9.85;1.30;;;11.50;99.90;;;;;;5033331;28;20263;-63
2023/10/31 10:18:25;;;;;;;5.68;1.17;;;11.50;99.90;;;;;;5033262;28;20231;-59
2023/10/31 10:20:59;;;;;;;3.65;1.27;;;11.50;99.90;;;;;;5033574;28;20259;-60
2023/10/31 10:23:26;;;;;;;10.18;0.95;;;11.60;99.90;;;;;;5032798;28;20168;-65
2023/10/31 10:25:53;;;;;;;6.15;1.30;;;11.70;99.90;;;;;;5015075;28;20218;-62
2023/10/31 10:28:19;;;;;;;7.55;1.17;;;11.80;99.90;;;;;;5014612;28;20306;-61
2023/10/31 10:30:48;;;;;;;11.88;1.55;;;11.90;99.90;;;;;;4999086;28;20596;-60
2023/10/31 10:33:15;;;;;;;5.68;1.13;;;11.90;99.90;;;;;;5032438;28;20233;-65
2023/10/31 10:35:42;;;;;;;8.50;1.33;;;12.00;99.90;;;;;;4981948;28;20192;-64
2023/10/31 10:38:16;;;;;;;7.05;1.35;;;12.00;99.90;;;;;;5032444;28;20694;-60
2023/10/31 10:40:44;;;;;;;11.25;1.33;;;12.00;99.90;;;;;;5032658;28;20636;-66
2023/10/31 10:43:21;;;;;;;13.30;1.70;;;12.00;99.90;;;;;;5031979;28;20172;-64
2023/10/31 10:45:57;;;;;;;6.57;1.30;;;12.10;99.90;;;;;;5032362;28;20677;-58
2023/10/31 10:48:25;;;;;;;3.78;1.20;;;12.00;99.90;;;;;;5032703;28;20210;-62
2023/10/31 10:50:59;;;;;;;5.80;0.90;;;12.10;99.90;;;;;;5015230;28;20191;-65
2023/10/31 10:53:35;;;;;;;5.25;1.13;;;12.10;99.90;;;;;;5032643;28;20171;-62
2023/10/31 10:56:13;;;;;;;3.42;1.10;;;12.20;99.90;;;;;;5032734;28;20168;-60
2023/10/31 10:58:39;;;;;;;7.88;1.20;;;12.30;99.90;;;;;;5032344;28;20318;-61
2023/10/31 11:01:07;;;;;;;7.60;1.30;;;12.40;99.90;;;;;;5032241;28;20633;-59
2023/10/31 11:03:34;;;;;;;4.18;1.33;;;12.40;99.90;;;;;;5032302;28;20184;-63
2023/10/31 11:06:00;;;;;;;4.50;1.45;;;12.50;99.90;;;;;;5032120;28;20286;-60
2023/10/31 11:08:28;;;;;;;6.28;1.80;;;12.50;99.90;;;;;;5014407;28;20492;-62
2023/10/31 11:10:55;;;;;;;9.15;1.10;;;12.60;99.90;;;;;;5032122;28;20232;-61
2023/10/31 11:13:22;;;;;;;9.23;1.40;;;12.70;99.90;;;;;;5031215;28;20428;-62
2023/10/31 11:15:55;;;;;;;7.60;1.08;;;12.70;99.90;;;;;;5031880;28;20207;-59
2023/10/31 11:18:22;;;;;;;5.95;1.20;;;12.80;99.90;;;;;;5031590;28;20191;-59
2023/10/31 11:20:48;;;;;;;7.78;1.45;;;12.80;99.90;;;;;;5031623;28;20624;-60
2023/10/31 11:23:14;;;;;;;11.05;1.50;;;12.90;99.90;;;;;;5014095;28;20235;-61
2023/10/31 11:25:44;;;;;;;8.73;1.58;;;12.90;99.90;;;;;;5031640;28;20191;-62
2023/10/31 11:28:15;;;;;;;9.90;2.25;;;12.90;99.90;;;;;;5031665;28;20623;-64
2023/10/31 11:30:43;;;;;;;8.43;1.75;;;12.90;99.90;;;;;;5031530;28;20520;-61
2023/10/31 11:33:20;;;;;;;7.07;1.55;;;13.00;99.90;;;;;;5031349;28;20183;-61
2023/10/31 11:35:59;;;;;;;8.93;1.80;;;13.10;99.90;;;;;;5013850;28;20172;-59
2023/10/31 11:38:35;;;;;;;5.45;0.95;;;13.10;99.90;;;;;;5013836;28;20217;-60
2023/10/31 11:41:03;;;;;;;9.23;1.50;;;13.10;99.90;;;;;;5031640;28;20163;-51
2023/10/31 11:43:50;;;;;;;6.10;1.67;;;13.10;99.90;;;;;;4997330;28;20259;-62
2023/10/31 11:46:23;;;;;;;7.53;1.65;;;13.10;99.90;;;;;;5031509;28;20263;-61
2023/10/31 11:48:52;;;;;;;6.68;1.48;;;13.10;99.90;;;;;;5031284;28;20584;-57
2023/10/31 11:51:18;;;;;;;11.27;1.73;;;13.10;99.90;;;;;;5013869;28;20183;-60
2023/10/31 11:53:45;;;;;;;9.13;1.50;;;13.10;99.90;;;;;;5031693;28;20241;-61
2023/10/31 11:56:19;;;;;;;7.57;1.75;;;13.10;99.90;;;;;;5014328;28;20216;-60
2023/10/31 11:58:55;;;;;;;8.23;2.00;;;13.10;99.90;;;;;;5031152;28;20214;-61
2023/10/31 12:01:21;;;;;;;7.45;1.60;;;13.10;99.90;;;;;;5031411;28;20180;-63
2023/10/31 12:03:48;;;;;;;7.45;1.15;;;13.10;99.90;;;;;;5029625;28;20192;-60
2023/10/31 12:06:15;;;;;;;10.60;1.52;;;13.10;99.90;;;;;;5031482;28;20273;-61
2023/10/31 12:08:42;;;;;;;10.32;1.88;;;13.10;99.90;;;;;;5031832;28;20636;-60
2023/10/31 12:11:23;;;;;;;6.20;1.65;;;13.20;99.90;;;;;;5013974;28;20227;-65
2023/10/31 12:14:00;;;;;;;8.70;1.58;;;13.20;99.90;;;;;;5031309;28;20171;-61
2023/10/31 12:16:31;;;;;;;10.13;1.70;;;13.20;99.90;;;;;;5014093;28;20229;-63
2023/10/31 12:18:58;;;;;;;9.45;1.58;;;13.20;99.90;;;;;;5031020;28;20248;-61
2023/10/31 12:21:47;;;;;;;10.02;1.80;;;13.20;99.90;;;;;;5013688;28;20190;-60
2023/10/31 12:24:15;;;;;;;12.05;2.45;;;13.20;99.90;;;;;;5031174;28;20180;-63
2023/10/31 12:26:42;;;;;;;7.25;1.70;;;13.20;99.90;;;;;;5031115;28;20246;-60
2023/10/31 12:29:14;;;;;;;9.48;1.80;;;13.20;99.90;;;;;;5030765;28;20195;-59
2023/10/31 12:31:45;;;;;;;12.93;1.85;;;13.20;99.90;;;;;;5030794;28;20593;-64
2023/10/31 12:34:11;;;;;;;11.00;1.65;;;13.20;99.90;;;;;;5013150;28;20157;-61
2023/10/31 12:36:38;;;;;;;10.70;1.50;;;13.10;99.90;;;;;;5030691;28;20176;-63
2023/10/31 12:39:07;;;;;;;8.60;1.40;;;13.10;99.90;;;;;;5029834;28;20552;-61